sensor_id;sensor_type;location;lat;lon;timestamp;P1;durP1;ratioP1;P2;durP2;ratioP2
54171;SDS011;40076;52.354;4.970;2023-04-24T00:00:18;8.32;;;6.40;;
54171;SDS011;40076;52.354;4.970;2023-04-24T00:02:43;8.25;;;6.78;;
54171;SDS011;40076;52.354;4.970;2023-04-24T00:05:12;7.72;;;6.93;;
54171;SDS011;40076;52.354;4.970;2023-04-24T00:07:38;8.50;;;6.80;;
54171;SDS011;40076;52.354;4.970;2023-04-24T00:10:05;15.05;;;10.95;;
54171;SDS011;40076;52.354;4.970;2023-04-24T00:12:31;5.00;;;4.35;;
54171;SDS011;40076;52.354;4.970;2023-04-24T00:14:56;2.85;;;1.50;;
54171;SDS011;40076;52.354;4.970;2023-04-24T00:17:21;3.03;;;1.30;;
54171;SDS011;40076;52.354;4.970;2023-04-24T00:19:47;2.45;;;0.88;;
54171;SDS011;40076;52.354;4.970;2023-04-24T00:22:13;3.70;;;1.98;;
54171;SDS011;40076;52.354;4.970;2023-04-24T00:24:39;3.20;;;1.75;;
54171;SDS011;40076;52.354;4.970;2023-04-24T00:27:04;2.53;;;1.52;;
54171;SDS011;40076;52.354;4.970;2023-04-24T00:29:30;2.63;;;1.65;;
54171;SDS011;40076;52.354;4.970;2023-04-24T00:31:55;4.15;;;2.20;;
54171;SDS011;40076;52.354;4.970;2023-04-24T00:34:20;4.53;;;2.22;;
54171;SDS011;40076;52.354;4.970;2023-04-24T00:36:46;3.38;;;1.90;;
54171;SDS011;40076;52.354;4.970;2023-04-24T00:39:11;3.15;;;1.40;;
54171;SDS011;40076;52.354;4.970;2023-04-24T00:41:36;2.30;;;1.30;;
54171;SDS011;40076;52.354;4.970;2023-04-24T00:44:02;6.47;;;1.20;;
54171;SDS011;40076;52.354;4.970;2023-04-24T00:46:27;2.50;;;0.85;;
54171;SDS011;40076;52.354;4.970;2023-04-24T00:48:53;3.00;;;0.80;;
54171;SDS011;40076;52.354;4.970;2023-04-24T00:51:19;4.78;;;0.93;;
54171;SDS011;40076;52.354;4.970;2023-04-24T00:53:45;2.58;;;1.10;;
54171;SDS011;40076;52.354;4.970;2023-04-24T00:56:11;2.90;;;1.17;;
54171;SDS011;40076;52.354;4.970;2023-04-24T00:58:36;2.88;;;1.70;;
54171;SDS011;40076;52.354;4.970;2023-04-24T01:01:02;6.00;;;2.00;;
54171;SDS011;40076;52.354;4.970;2023-04-24T01:03:31;5.25;;;2.83;;
54171;SDS011;40076;52.354;4.970;2023-04-24T01:05:58;9.27;;;3.15;;
54171;SDS011;40076;52.354;4.970;2023-04-24T01:08:23;6.15;;;4.03;;
54171;SDS011;40076;52.354;4.970;2023-04-24T01:10:51;6.75;;;4.20;;
54171;SDS011;40076;52.354;4.970;2023-04-24T01:13:18;5.40;;;3.35;;
54171;SDS011;40076;52.354;4.970;2023-04-24T01:15:44;5.43;;;3.08;;
54171;SDS011;40076;52.354;4.970;2023-04-24T01:18:10;4.55;;;2.42;;
54171;SDS011;40076;52.354;4.970;2023-04-24T01:20:35;4.95;;;2.35;;
54171;SDS011;40076;52.354;4.970;2023-04-24T01:23:05;3.55;;;1.50;;
54171;SDS011;40076;52.354;4.970;2023-04-24T01:25:30;4.05;;;1.52;;
54171;SDS011;40076;52.354;4.970;2023-04-24T01:27:56;3.00;;;1.50;;
54171;SDS011;40076;52.354;4.970;2023-04-24T01:30:22;3.75;;;1.05;;
54171;SDS011;40076;52.354;4.970;2023-04-24T01:32:47;3.30;;;0.93;;
54171;SDS011;40076;52.354;4.970;2023-04-24T01:35:13;2.17;;;0.70;;
54171;SDS011;40076;52.354;4.970;2023-04-24T01:37:39;3.40;;;0.88;;
54171;SDS011;40076;52.354;4.970;2023-04-24T01:40:05;1.60;;;0.70;;
54171;SDS011;40076;52.354;4.970;2023-04-24T01:42:32;1.70;;;0.68;;
54171;SDS011;40076;52.354;4.970;2023-04-24T01:44:57;2.10;;;0.60;;
54171;SDS011;40076;52.354;4.970;2023-04-24T01:47:23;2.00;;;0.60;;
54171;SDS011;40076;52.354;4.970;2023-04-24T01:49:49;3.28;;;0.85;;
54171;SDS011;40076;52.354;4.970;2023-04-24T01:52:15;4.38;;;0.50;;
54171;SDS011;40076;52.354;4.970;2023-04-24T01:54:41;1.48;;;0.40;;
54171;SDS011;40076;52.354;4.970;2023-04-24T01:57:06;3.80;;;0.50;;
54171;SDS011;40076;52.354;4.970;2023-04-24T01:59:32;1.98;;;0.57;;
54171;SDS011;40076;52.354;4.970;2023-04-24T02:01:58;1.05;;;0.30;;
54171;SDS011;40076;52.354;4.970;2023-04-24T02:04:23;3.47;;;0.47;;
54171;SDS011;40076;52.354;4.970;2023-04-24T02:06:48;0.88;;;0.35;;
54171;SDS011;40076;52.354;4.970;2023-04-24T02:09:14;1.98;;;0.40;;
54171;SDS011;40076;52.354;4.970;2023-04-24T02:11:39;1.08;;;0.40;;
54171;SDS011;40076;52.354;4.970;2023-04-24T02:14:04;2.00;;;0.60;;
54171;SDS011;40076;52.354;4.970;2023-04-24T02:16:30;4.40;;;0.60;;
54171;SDS011;40076;52.354;4.970;2023-04-24T02:18:57;1.85;;;0.55;;
54171;SDS011;40076;52.354;4.970;2023-04-24T02:21:22;2.47;;;0.50;;
54171;SDS011;40076;52.354;4.970;2023-04-24T02:23:48;1.85;;;0.43;;
54171;SDS011;40076;52.354;4.970;2023-04-24T02:26:13;2.10;;;0.52;;
54171;SDS011;40076;52.354;4.970;2023-04-24T02:28:38;2.10;;;0.50;;
54171;SDS011;40076;52.354;4.970;2023-04-24T02:31:03;1.10;;;0.40;;
54171;SDS011;40076;52.354;4.970;2023-04-24T02:33:30;3.63;;;0.60;;
54171;SDS011;40076;52.354;4.970;2023-04-24T02:35:55;2.88;;;0.47;;
54171;SDS011;40076;52.354;4.970;2023-04-24T02:38:20;2.45;;;0.60;;
54171;SDS011;40076;52.354;4.970;2023-04-24T02:44:25;2.20;;;0.47;;
54171;SDS011;40076;52.354;4.970;2023-04-24T02:46:50;2.20;;;0.40;;
54171;SDS011;40076;52.354;4.970;2023-04-24T02:49:15;1.23;;;0.50;;
54171;SDS011;40076;52.354;4.970;2023-04-24T02:51:41;1.90;;;0.57;;
54171;SDS011;40076;52.354;4.970;2023-04-24T02:54:06;2.88;;;0.40;;
54171;SDS011;40076;52.354;4.970;2023-04-24T02:56:33;1.13;;;0.40;;
54171;SDS011;40076;52.354;4.970;2023-04-24T02:58:59;2.80;;;0.47;;
54171;SDS011;40076;52.354;4.970;2023-04-24T03:01:24;0.73;;;0.30;;
54171;SDS011;40076;52.354;4.970;2023-04-24T03:03:50;2.35;;;0.40;;
54171;SDS011;40076;52.354;4.970;2023-04-24T03:06:15;0.98;;;0.30;;
54171;SDS011;40076;52.354;4.970;2023-04-24T03:08:40;1.55;;;0.50;;
54171;SDS011;40076;52.354;4.970;2023-04-24T03:11:06;0.95;;;0.30;;
54171;SDS011;40076;52.354;4.970;2023-04-24T03:13:31;3.65;;;0.40;;
54171;SDS011;40076;52.354;4.970;2023-04-24T03:15:56;0.90;;;0.28;;
54171;SDS011;40076;52.354;4.970;2023-04-24T03:18:22;1.52;;;0.30;;
54171;SDS011;40076;52.354;4.970;2023-04-24T03:20:47;3.70;;;0.32;;
54171;SDS011;40076;52.354;4.970;2023-04-24T03:23:12;1.65;;;0.20;;
54171;SDS011;40076;52.354;4.970;2023-04-24T03:25:38;0.90;;;0.20;;
54171;SDS011;40076;52.354;4.970;2023-04-24T03:28:03;0.85;;;0.20;;
54171;SDS011;40076;52.354;4.970;2023-04-24T03:30:29;1.75;;;0.20;;
54171;SDS011;40076;52.354;4.970;2023-04-24T03:32:54;1.23;;;0.30;;
54171;SDS011;40076;52.354;4.970;2023-04-24T03:35:20;1.55;;;0.20;;
54171;SDS011;40076;52.354;4.970;2023-04-24T03:37:46;2.80;;;0.30;;
54171;SDS011;40076;52.354;4.970;2023-04-24T03:40:12;2.47;;;0.45;;
54171;SDS011;40076;52.354;4.970;2023-04-24T03:42:37;2.17;;;0.40;;
54171;SDS011;40076;52.354;4.970;2023-04-24T03:45:02;3.30;;;0.52;;
54171;SDS011;40076;52.354;4.970;2023-04-24T03:47:28;2.35;;;0.40;;
54171;SDS011;40076;52.354;4.970;2023-04-24T03:49:53;1.77;;;0.30;;
54171;SDS011;40076;52.354;4.970;2023-04-24T03:52:20;1.33;;;0.52;;
54171;SDS011;40076;52.354;4.970;2023-04-24T03:54:46;1.65;;;0.30;;
54171;SDS011;40076;52.354;4.970;2023-04-24T03:57:11;1.67;;;0.40;;
54171;SDS011;40076;52.354;4.970;2023-04-24T03:59:36;1.95;;;0.50;;
54171;SDS011;40076;52.354;4.970;2023-04-24T04:02:01;4.03;;;0.40;;
54171;SDS011;40076;52.354;4.970;2023-04-24T04:04:27;2.58;;;0.35;;
54171;SDS011;40076;52.354;4.970;2023-04-24T04:06:52;1.92;;;0.60;;
54171;SDS011;40076;52.354;4.970;2023-04-24T04:09:18;1.73;;;0.40;;
54171;SDS011;40076;52.354;4.970;2023-04-24T04:11:43;3.08;;;0.60;;
54171;SDS011;40076;52.354;4.970;2023-04-24T04:14:08;2.78;;;0.40;;
54171;SDS011;40076;52.354;4.970;2023-04-24T04:16:34;2.80;;;0.60;;
54171;SDS011;40076;52.354;4.970;2023-04-24T04:19:01;4.47;;;0.90;;
54171;SDS011;40076;52.354;4.970;2023-04-24T04:21:27;1.63;;;0.43;;
54171;SDS011;40076;52.354;4.970;2023-04-24T04:23:53;2.90;;;0.70;;
54171;SDS011;40076;52.354;4.970;2023-04-24T04:26:18;4.30;;;0.60;;
54171;SDS011;40076;52.354;4.970;2023-04-24T04:28:46;1.85;;;0.57;;
54171;SDS011;40076;52.354;4.970;2023-04-24T04:31:12;2.05;;;0.60;;
54171;SDS011;40076;52.354;4.970;2023-04-24T04:33:38;2.70;;;0.70;;
54171;SDS011;40076;52.354;4.970;2023-04-24T04:36:04;1.77;;;0.45;;
54171;SDS011;40076;52.354;4.970;2023-04-24T04:38:29;3.90;;;0.45;;
54171;SDS011;40076;52.354;4.970;2023-04-24T04:40:55;3.78;;;0.57;;
54171;SDS011;40076;52.354;4.970;2023-04-24T04:43:22;2.35;;;0.50;;
54171;SDS011;40076;52.354;4.970;2023-04-24T04:45:47;1.40;;;0.50;;
54171;SDS011;40076;52.354;4.970;2023-04-24T04:48:13;2.42;;;0.45;;
54171;SDS011;40076;52.354;4.970;2023-04-24T04:50:39;1.23;;;0.30;;
54171;SDS011;40076;52.354;4.970;2023-04-24T04:53:04;3.17;;;0.60;;
54171;SDS011;40076;52.354;4.970;2023-04-24T04:55:30;2.20;;;0.57;;
54171;SDS011;40076;52.354;4.970;2023-04-24T04:57:55;3.03;;;0.50;;
54171;SDS011;40076;52.354;4.970;2023-04-24T05:00:21;1.95;;;0.60;;
54171;SDS011;40076;52.354;4.970;2023-04-24T05:02:46;2.33;;;0.52;;
54171;SDS011;40076;52.354;4.970;2023-04-24T05:05:12;2.38;;;0.40;;
54171;SDS011;40076;52.354;4.970;2023-04-24T05:07:38;3.20;;;0.30;;
54171;SDS011;40076;52.354;4.970;2023-04-24T05:10:03;3.42;;;0.50;;
54171;SDS011;40076;52.354;4.970;2023-04-24T05:12:29;1.38;;;0.40;;
54171;SDS011;40076;52.354;4.970;2023-04-24T05:14:54;3.10;;;0.60;;
54171;SDS011;40076;52.354;4.970;2023-04-24T05:17:19;3.10;;;0.55;;
54171;SDS011;40076;52.354;4.970;2023-04-24T05:19:45;4.07;;;0.70;;
54171;SDS011;40076;52.354;4.970;2023-04-24T05:22:11;3.25;;;0.60;;
54171;SDS011;40076;52.354;4.970;2023-04-24T05:24:36;4.10;;;0.80;;
54171;SDS011;40076;52.354;4.970;2023-04-24T05:27:02;4.20;;;1.25;;
54171;SDS011;40076;52.354;4.970;2023-04-24T05:29:29;3.55;;;1.70;;
54171;SDS011;40076;52.354;4.970;2023-04-24T05:31:58;4.78;;;2.30;;
54171;SDS011;40076;52.354;4.970;2023-04-24T05:34:23;6.85;;;3.10;;
54171;SDS011;40076;52.354;4.970;2023-04-24T05:36:49;5.72;;;3.63;;
54171;SDS011;40076;52.354;4.970;2023-04-24T05:39:15;9.90;;;5.28;;
54171;SDS011;40076;52.354;4.970;2023-04-24T05:41:41;11.80;;;6.35;;
54171;SDS011;40076;52.354;4.970;2023-04-24T05:44:06;12.40;;;7.70;;
54171;SDS011;40076;52.354;4.970;2023-04-24T05:46:31;13.20;;;8.52;;
54171;SDS011;40076;52.354;4.970;2023-04-24T05:48:56;16.90;;;9.10;;
54171;SDS011;40076;52.354;4.970;2023-04-24T05:51:22;16.48;;;9.82;;
54171;SDS011;40076;52.354;4.970;2023-04-24T05:53:47;22.95;;;11.30;;
54171;SDS011;40076;52.354;4.970;2023-04-24T05:56:12;19.13;;;11.63;;
54171;SDS011;40076;52.354;4.970;2023-04-24T05:58:38;20.08;;;11.82;;
54171;SDS011;40076;52.354;4.970;2023-04-24T06:01:04;21.73;;;12.27;;
54171;SDS011;40076;52.354;4.970;2023-04-24T06:03:29;22.90;;;13.10;;
54171;SDS011;40076;52.354;4.970;2023-04-24T06:05:55;25.30;;;13.13;;
54171;SDS011;40076;52.354;4.970;2023-04-24T06:08:20;24.48;;;14.18;;
54171;SDS011;40076;52.354;4.970;2023-04-24T06:10:46;19.90;;;13.20;;
54171;SDS011;40076;52.354;4.970;2023-04-24T06:13:11;24.85;;;13.80;;
54171;SDS011;40076;52.354;4.970;2023-04-24T06:15:37;22.02;;;13.07;;
54171;SDS011;40076;52.354;4.970;2023-04-24T06:18:02;26.60;;;12.95;;
54171;SDS011;40076;52.354;4.970;2023-04-24T06:20:28;21.13;;;11.27;;
54171;SDS011;40076;52.354;4.970;2023-04-24T06:22:53;26.70;;;10.90;;
54171;SDS011;40076;52.354;4.970;2023-04-24T06:25:19;22.27;;;11.07;;
54171;SDS011;40076;52.354;4.970;2023-04-24T06:27:44;18.50;;;9.90;;
54171;SDS011;40076;52.354;4.970;2023-04-24T06:30:10;17.40;;;9.05;;
54171;SDS011;40076;52.354;4.970;2023-04-24T06:32:35;17.48;;;9.13;;
54171;SDS011;40076;52.354;4.970;2023-04-24T06:35:01;17.02;;;9.38;;
54171;SDS011;40076;52.354;4.970;2023-04-24T06:37:26;16.63;;;8.23;;
54171;SDS011;40076;52.354;4.970;2023-04-24T06:39:52;21.33;;;8.98;;
54171;SDS011;40076;52.354;4.970;2023-04-24T06:42:17;15.00;;;8.38;;
54171;SDS011;40076;52.354;4.970;2023-04-24T06:44:42;19.38;;;9.45;;
54171;SDS011;40076;52.354;4.970;2023-04-24T06:47:08;18.00;;;8.60;;
54171;SDS011;40076;52.354;4.970;2023-04-24T06:49:34;22.58;;;10.05;;
54171;SDS011;40076;52.354;4.970;2023-04-24T06:52:03;19.92;;;9.65;;
54171;SDS011;40076;52.354;4.970;2023-04-24T06:54:29;20.23;;;8.65;;
54171;SDS011;40076;52.354;4.970;2023-04-24T06:56:55;21.90;;;8.95;;
54171;SDS011;40076;52.354;4.970;2023-04-24T06:59:22;18.17;;;8.48;;
54171;SDS011;40076;52.354;4.970;2023-04-24T07:01:50;18.35;;;8.43;;
54171;SDS011;40076;52.354;4.970;2023-04-24T07:04:18;18.15;;;8.82;;
54171;SDS011;40076;52.354;4.970;2023-04-24T07:06:44;26.20;;;9.25;;
54171;SDS011;40076;52.354;4.970;2023-04-24T07:09:11;20.23;;;7.78;;
54171;SDS011;40076;52.354;4.970;2023-04-24T07:11:38;17.67;;;7.75;;
54171;SDS011;40076;52.354;4.970;2023-04-24T07:14:05;19.13;;;7.50;;
54171;SDS011;40076;52.354;4.970;2023-04-24T07:16:31;25.38;;;7.70;;
54171;SDS011;40076;52.354;4.970;2023-04-24T07:18:56;13.68;;;6.40;;
54171;SDS011;40076;52.354;4.970;2023-04-24T07:21:21;18.00;;;5.90;;
54171;SDS011;40076;52.354;4.970;2023-04-24T07:23:52;16.17;;;6.13;;
54171;SDS011;40076;52.354;4.970;2023-04-24T07:26:17;21.90;;;6.55;;
54171;SDS011;40076;52.354;4.970;2023-04-24T07:28:43;26.38;;;8.32;;
54171;SDS011;40076;52.354;4.970;2023-04-24T07:31:08;22.63;;;6.28;;
54171;SDS011;40076;52.354;4.970;2023-04-24T07:33:34;19.27;;;5.80;;
54171;SDS011;40076;52.354;4.970;2023-04-24T07:36:01;22.52;;;4.97;;
54171;SDS011;40076;52.354;4.970;2023-04-24T07:38:29;20.50;;;4.85;;
54171;SDS011;40076;52.354;4.970;2023-04-24T07:40:54;18.00;;;5.38;;
54171;SDS011;40076;52.354;4.970;2023-04-24T07:43:20;21.17;;;5.70;;
54171;SDS011;40076;52.354;4.970;2023-04-24T07:45:46;23.73;;;4.88;;
54171;SDS011;40076;52.354;4.970;2023-04-24T07:48:11;24.45;;;5.13;;
54171;SDS011;40076;52.354;4.970;2023-04-24T07:50:39;17.45;;;4.38;;
54171;SDS011;40076;52.354;4.970;2023-04-24T07:53:04;16.00;;;3.88;;
54171;SDS011;40076;52.354;4.970;2023-04-24T07:55:30;14.18;;;4.00;;
54171;SDS011;40076;52.354;4.970;2023-04-24T07:57:55;19.65;;;3.85;;
54171;SDS011;40076;52.354;4.970;2023-04-24T08:00:20;19.23;;;3.60;;
54171;SDS011;40076;52.354;4.970;2023-04-24T08:02:46;16.23;;;3.22;;
54171;SDS011;40076;52.354;4.970;2023-04-24T08:05:11;20.45;;;4.75;;
54171;SDS011;40076;52.354;4.970;2023-04-24T08:07:36;20.25;;;4.28;;
54171;SDS011;40076;52.354;4.970;2023-04-24T08:10:03;19.25;;;3.10;;
54171;SDS011;40076;52.354;4.970;2023-04-24T08:12:29;20.25;;;3.50;;
54171;SDS011;40076;52.354;4.970;2023-04-24T08:14:54;18.75;;;3.50;;
54171;SDS011;40076;52.354;4.970;2023-04-24T08:17:20;12.13;;;2.78;;
54171;SDS011;40076;52.354;4.970;2023-04-24T08:19:45;16.38;;;3.20;;
54171;SDS011;40076;52.354;4.970;2023-04-24T08:22:13;20.08;;;4.50;;
54171;SDS011;40076;52.354;4.970;2023-04-24T08:24:39;13.88;;;2.78;;
54171;SDS011;40076;52.354;4.970;2023-04-24T08:27:05;20.00;;;4.28;;
54171;SDS011;40076;52.354;4.970;2023-04-24T08:29:30;23.08;;;3.75;;
54171;SDS011;40076;52.354;4.970;2023-04-24T08:31:56;16.40;;;3.20;;
54171;SDS011;40076;52.354;4.970;2023-04-24T08:34:21;10.63;;;2.63;;
54171;SDS011;40076;52.354;4.970;2023-04-24T08:36:46;12.68;;;2.78;;
54171;SDS011;40076;52.354;4.970;2023-04-24T08:39:12;11.50;;;2.45;;
54171;SDS011;40076;52.354;4.970;2023-04-24T08:41:37;11.80;;;2.38;;
54171;SDS011;40076;52.354;4.970;2023-04-24T08:44:04;11.73;;;2.78;;
54171;SDS011;40076;52.354;4.970;2023-04-24T08:46:30;13.25;;;3.38;;
54171;SDS011;40076;52.354;4.970;2023-04-24T08:48:56;17.23;;;3.25;;
54171;SDS011;40076;52.354;4.970;2023-04-24T08:51:21;12.65;;;3.88;;
54171;SDS011;40076;52.354;4.970;2023-04-24T08:53:47;15.45;;;3.55;;
54171;SDS011;40076;52.354;4.970;2023-04-24T08:56:13;14.30;;;2.92;;
54171;SDS011;40076;52.354;4.970;2023-04-24T08:58:39;13.65;;;2.58;;
54171;SDS011;40076;52.354;4.970;2023-04-24T09:01:05;19.70;;;3.70;;
54171;SDS011;40076;52.354;4.970;2023-04-24T09:03:31;17.25;;;3.15;;
54171;SDS011;40076;52.354;4.970;2023-04-24T09:05:58;12.27;;;2.58;;
54171;SDS011;40076;52.354;4.970;2023-04-24T09:08:24;13.95;;;2.70;;
54171;SDS011;40076;52.354;4.970;2023-04-24T09:10:50;11.63;;;2.83;;
54171;SDS011;40076;52.354;4.970;2023-04-24T09:13:16;14.07;;;3.55;;
54171;SDS011;40076;52.354;4.970;2023-04-24T09:15:42;15.15;;;2.90;;
54171;SDS011;40076;52.354;4.970;2023-04-24T09:18:08;14.07;;;2.70;;
54171;SDS011;40076;52.354;4.970;2023-04-24T09:20:33;12.48;;;2.60;;
54171;SDS011;40076;52.354;4.970;2023-04-24T09:23:00;17.08;;;2.40;;
54171;SDS011;40076;52.354;4.970;2023-04-24T09:25:33;13.30;;;2.80;;
54171;SDS011;40076;52.354;4.970;2023-04-24T09:28:03;14.23;;;2.63;;
54171;SDS011;40076;52.354;4.970;2023-04-24T09:30:29;12.63;;;3.05;;
54171;SDS011;40076;52.354;4.970;2023-04-24T09:33:14;10.27;;;2.70;;
54171;SDS011;40076;52.354;4.970;2023-04-24T09:35:49;8.68;;;2.28;;
54171;SDS011;40076;52.354;4.970;2023-04-24T09:38:16;13.38;;;2.53;;
54171;SDS011;40076;52.354;4.970;2023-04-24T09:40:41;13.23;;;1.83;;
54171;SDS011;40076;52.354;4.970;2023-04-24T09:43:09;11.93;;;1.90;;
54171;SDS011;40076;52.354;4.970;2023-04-24T09:45:36;11.23;;;2.03;;
54171;SDS011;40076;52.354;4.970;2023-04-24T09:48:02;14.88;;;2.13;;
54171;SDS011;40076;52.354;4.970;2023-04-24T09:50:29;8.38;;;1.52;;
54171;SDS011;40076;52.354;4.970;2023-04-24T09:52:58;6.97;;;1.85;;
54171;SDS011;40076;52.354;4.970;2023-04-24T09:55:26;11.02;;;1.58;;
54171;SDS011;40076;52.354;4.970;2023-04-24T09:57:52;10.18;;;1.60;;
54171;SDS011;40076;52.354;4.970;2023-04-24T10:00:27;15.05;;;2.50;;
54171;SDS011;40076;52.354;4.970;2023-04-24T10:02:54;11.93;;;2.15;;
54171;SDS011;40076;52.354;4.970;2023-04-24T10:05:24;9.40;;;1.92;;
54171;SDS011;40076;52.354;4.970;2023-04-24T10:07:56;9.68;;;2.08;;
54171;SDS011;40076;52.354;4.970;2023-04-24T10:10:22;7.25;;;1.40;;
54171;SDS011;40076;52.354;4.970;2023-04-24T10:12:47;5.65;;;1.20;;
54171;SDS011;40076;52.354;4.970;2023-04-24T10:15:13;8.70;;;1.25;;
54171;SDS011;40076;52.354;4.970;2023-04-24T10:17:41;5.93;;;1.40;;
54171;SDS011;40076;52.354;4.970;2023-04-24T10:20:09;9.50;;;1.20;;
54171;SDS011;40076;52.354;4.970;2023-04-24T10:22:36;4.72;;;0.90;;
54171;SDS011;40076;52.354;4.970;2023-04-24T10:25:02;3.05;;;0.90;;
54171;SDS011;40076;52.354;4.970;2023-04-24T10:27:29;5.68;;;0.88;;
54171;SDS011;40076;52.354;4.970;2023-04-24T10:29:56;2.45;;;0.63;;
54171;SDS011;40076;52.354;4.970;2023-04-24T10:32:22;8.77;;;1.25;;
54171;SDS011;40076;52.354;4.970;2023-04-24T10:34:47;7.28;;;1.40;;
54171;SDS011;40076;52.354;4.970;2023-04-24T10:37:13;3.33;;;0.88;;
54171;SDS011;40076;52.354;4.970;2023-04-24T10:39:39;6.68;;;0.85;;
54171;SDS011;40076;52.354;4.970;2023-04-24T10:42:15;4.95;;;1.00;;
54171;SDS011;40076;52.354;4.970;2023-04-24T10:44:40;4.88;;;1.27;;
54171;SDS011;40076;52.354;4.970;2023-04-24T10:47:06;6.82;;;1.25;;
54171;SDS011;40076;52.354;4.970;2023-04-24T10:49:38;7.15;;;1.42;;
54171;SDS011;40076;52.354;4.970;2023-04-24T10:52:04;8.98;;;1.33;;
54171;SDS011;40076;52.354;4.970;2023-04-24T10:54:36;6.82;;;1.15;;
54171;SDS011;40076;52.354;4.970;2023-04-24T10:59:45;6.15;;;1.13;;
54171;SDS011;40076;52.354;4.970;2023-04-24T11:02:14;8.05;;;1.17;;
54171;SDS011;40076;52.354;4.970;2023-04-24T11:04:40;6.47;;;0.80;;
54171;SDS011;40076;52.354;4.970;2023-04-24T11:07:08;6.25;;;0.93;;
54171;SDS011;40076;52.354;4.970;2023-04-24T11:09:34;8.55;;;1.02;;
54171;SDS011;40076;52.354;4.970;2023-04-24T11:12:05;4.13;;;0.73;;
54171;SDS011;40076;52.354;4.970;2023-04-24T11:17:28;4.40;;;0.80;;
54171;SDS011;40076;52.354;4.970;2023-04-24T11:19:53;5.22;;;1.05;;
54171;SDS011;40076;52.354;4.970;2023-04-24T11:22:26;5.40;;;1.23;;
54171;SDS011;40076;52.354;4.970;2023-04-24T11:24:54;5.95;;;1.23;;
54171;SDS011;40076;52.354;4.970;2023-04-24T11:27:20;9.85;;;1.90;;
54171;SDS011;40076;52.354;4.970;2023-04-24T11:32:28;6.80;;;1.58;;
54171;SDS011;40076;52.354;4.970;2023-04-24T11:37:23;4.43;;;0.77;;
54171;SDS011;40076;52.354;4.970;2023-04-24T11:39:53;5.97;;;1.05;;
54171;SDS011;40076;52.354;4.970;2023-04-24T11:42:20;3.80;;;0.90;;
54171;SDS011;40076;52.354;4.970;2023-04-24T11:44:47;3.78;;;0.90;;
54171;SDS011;40076;52.354;4.970;2023-04-24T11:47:14;7.63;;;1.75;;
54171;SDS011;40076;52.354;4.970;2023-04-24T11:49:39;8.73;;;1.52;;
54171;SDS011;40076;52.354;4.970;2023-04-24T11:52:04;9.50;;;1.77;;
54171;SDS011;40076;52.354;4.970;2023-04-24T11:54:30;10.65;;;1.90;;
54171;SDS011;40076;52.354;4.970;2023-04-24T11:56:56;12.70;;;1.67;;
54171;SDS011;40076;52.354;4.970;2023-04-24T11:59:21;10.38;;;1.70;;
54171;SDS011;40076;52.354;4.970;2023-04-24T12:01:47;10.77;;;1.95;;
54171;SDS011;40076;52.354;4.970;2023-04-24T12:04:14;9.27;;;1.70;;
54171;SDS011;40076;52.354;4.970;2023-04-24T12:06:58;10.73;;;1.70;;
54171;SDS011;40076;52.354;4.970;2023-04-24T12:09:24;10.93;;;1.92;;
54171;SDS011;40076;52.354;4.970;2023-04-24T12:11:53;9.88;;;1.98;;
54171;SDS011;40076;52.354;4.970;2023-04-24T12:14:21;10.93;;;2.80;;
54171;SDS011;40076;52.354;4.970;2023-04-24T12:16:48;13.82;;;2.80;;
54171;SDS011;40076;52.354;4.970;2023-04-24T12:19:17;9.18;;;2.30;;
54171;SDS011;40076;52.354;4.970;2023-04-24T12:21:57;15.18;;;2.88;;
54171;SDS011;40076;52.354;4.970;2023-04-24T12:24:27;9.77;;;1.77;;
54171;SDS011;40076;52.354;4.970;2023-04-24T12:26:52;15.73;;;2.60;;
54171;SDS011;40076;52.354;4.970;2023-04-24T12:29:21;17.35;;;2.60;;
54171;SDS011;40076;52.354;4.970;2023-04-24T12:31:47;15.45;;;3.25;;
54171;SDS011;40076;52.354;4.970;2023-04-24T12:34:20;12.32;;;2.22;;
54171;SDS011;40076;52.354;4.970;2023-04-24T12:36:46;13.35;;;2.63;;
54171;SDS011;40076;52.354;4.970;2023-04-24T12:39:18;16.67;;;3.10;;
54171;SDS011;40076;52.354;4.970;2023-04-24T12:41:56;14.98;;;2.88;;
54171;SDS011;40076;52.354;4.970;2023-04-24T12:44:31;15.52;;;2.90;;
54171;SDS011;40076;52.354;4.970;2023-04-24T12:46:59;14.70;;;2.33;;
54171;SDS011;40076;52.354;4.970;2023-04-24T12:49:25;17.20;;;2.92;;
54171;SDS011;40076;52.354;4.970;2023-04-24T12:51:50;15.60;;;2.88;;
54171;SDS011;40076;52.354;4.970;2023-04-24T12:54:16;17.55;;;2.90;;
54171;SDS011;40076;52.354;4.970;2023-04-24T12:56:41;12.55;;;2.65;;
54171;SDS011;40076;52.354;4.970;2023-04-24T12:59:06;15.15;;;3.67;;
54171;SDS011;40076;52.354;4.970;2023-04-24T13:01:32;22.65;;;3.92;;
54171;SDS011;40076;52.354;4.970;2023-04-24T13:03:57;18.50;;;3.50;;
54171;SDS011;40076;52.354;4.970;2023-04-24T13:06:22;15.15;;;3.17;;
54171;SDS011;40076;52.354;4.970;2023-04-24T13:08:48;15.75;;;2.97;;
54171;SDS011;40076;52.354;4.970;2023-04-24T13:11:13;19.00;;;3.00;;
54171;SDS011;40076;52.354;4.970;2023-04-24T13:13:39;17.83;;;3.00;;
54171;SDS011;40076;52.354;4.970;2023-04-24T13:16:04;17.05;;;3.33;;
54171;SDS011;40076;52.354;4.970;2023-04-24T13:18:30;19.38;;;4.07;;
54171;SDS011;40076;52.354;4.970;2023-04-24T13:20:55;23.95;;;3.80;;
54171;SDS011;40076;52.354;4.970;2023-04-24T13:23:20;23.30;;;3.80;;
54171;SDS011;40076;52.354;4.970;2023-04-24T13:25:47;15.75;;;2.97;;
54171;SDS011;40076;52.354;4.970;2023-04-24T13:28:13;15.48;;;3.30;;
54171;SDS011;40076;52.354;4.970;2023-04-24T13:30:38;10.38;;;2.80;;
54171;SDS011;40076;52.354;4.970;2023-04-24T13:33:03;8.63;;;2.50;;
54171;SDS011;40076;52.354;4.970;2023-04-24T13:35:29;7.45;;;2.28;;
54171;SDS011;40076;52.354;4.970;2023-04-24T13:37:54;9.57;;;2.60;;
54171;SDS011;40076;52.354;4.970;2023-04-24T13:40:19;12.90;;;3.17;;
54171;SDS011;40076;52.354;4.970;2023-04-24T13:42:45;12.07;;;3.17;;
54171;SDS011;40076;52.354;4.970;2023-04-24T13:45:10;13.93;;;3.33;;
54171;SDS011;40076;52.354;4.970;2023-04-24T13:47:36;12.65;;;3.08;;
54171;SDS011;40076;52.354;4.970;2023-04-24T13:50:01;14.88;;;3.75;;
54171;SDS011;40076;52.354;4.970;2023-04-24T13:52:26;19.90;;;4.05;;
54171;SDS011;40076;52.354;4.970;2023-04-24T13:54:52;11.15;;;2.47;;
54171;SDS011;40076;52.354;4.970;2023-04-24T13:57:17;14.85;;;3.28;;
54171;SDS011;40076;52.354;4.970;2023-04-24T13:59:42;12.50;;;2.78;;
54171;SDS011;40076;52.354;4.970;2023-04-24T14:02:08;8.75;;;1.92;;
54171;SDS011;40076;52.354;4.970;2023-04-24T14:04:33;7.25;;;1.90;;
54171;SDS011;40076;52.354;4.970;2023-04-24T14:06:58;11.15;;;2.30;;
54171;SDS011;40076;52.354;4.970;2023-04-24T14:09:24;9.73;;;2.20;;
54171;SDS011;40076;52.354;4.970;2023-04-24T14:11:49;9.93;;;2.00;;
54171;SDS011;40076;52.354;4.970;2023-04-24T14:14:16;10.10;;;2.42;;
54171;SDS011;40076;52.354;4.970;2023-04-24T14:16:42;12.15;;;2.75;;
54171;SDS011;40076;52.354;4.970;2023-04-24T14:19:07;8.45;;;2.58;;
54171;SDS011;40076;52.354;4.970;2023-04-24T14:21:32;12.23;;;3.20;;
54171;SDS011;40076;52.354;4.970;2023-04-24T14:23:58;12.02;;;2.83;;
54171;SDS011;40076;52.354;4.970;2023-04-24T14:26:23;14.52;;;3.38;;
54171;SDS011;40076;52.354;4.970;2023-04-24T14:28:49;18.25;;;3.55;;
54171;SDS011;40076;52.354;4.970;2023-04-24T14:31:15;18.88;;;3.17;;
54171;SDS011;40076;52.354;4.970;2023-04-24T14:33:41;15.43;;;3.08;;
54171;SDS011;40076;52.354;4.970;2023-04-24T14:36:06;13.55;;;3.28;;
54171;SDS011;40076;52.354;4.970;2023-04-24T14:38:31;13.50;;;2.97;;
54171;SDS011;40076;52.354;4.970;2023-04-24T14:40:57;19.27;;;4.90;;
54171;SDS011;40076;52.354;4.970;2023-04-24T14:43:22;20.05;;;4.03;;
54171;SDS011;40076;52.354;4.970;2023-04-24T14:45:48;13.63;;;3.55;;
54171;SDS011;40076;52.354;4.970;2023-04-24T14:48:13;14.52;;;3.50;;